createdAt,value
2022-10-22T00:00:08.738Z,87.69
2022-10-22T00:02:36.023Z,88.08
2022-10-22T00:05:04.232Z,87.53
2022-10-22T00:07:31.661Z,87.42
2022-10-22T00:09:59.137Z,87.14
2022-10-22T00:12:26.873Z,86.70
2022-10-22T00:14:54.024Z,87.15
2022-10-22T00:17:21.520Z,87.30
2022-10-22T00:19:48.849Z,87.43
2022-10-22T00:22:16.288Z,87.21
2022-10-22T00:24:44.043Z,87.35
2022-10-22T00:27:12.389Z,87.12
2022-10-22T00:29:39.950Z,87.06
2022-10-22T00:32:07.786Z,87.08
2022-10-22T00:34:35.087Z,87.24
2022-10-22T00:37:02.238Z,86.89
2022-10-22T00:39:29.819Z,87.11
2022-10-22T00:41:58.231Z,86.79
2022-10-22T00:45:03.081Z,86.46
2022-10-22T00:47:39.686Z,86.15
2022-10-22T00:50:12.128Z,86.31
2022-10-22T00:52:40.217Z,86.38
2022-10-22T00:55:08.002Z,86.69
2022-10-22T00:57:35.830Z,86.71
2022-10-22T01:00:04.767Z,86.45
2022-10-22T01:02:39.796Z,86.49
2022-10-22T01:05:07.634Z,86.69
2022-10-22T01:07:41.129Z,86.61
2022-10-22T01:10:12.639Z,86.57
2022-10-22T01:12:58.325Z,86.31
2022-10-22T01:15:34.033Z,86.55
2022-10-22T01:18:10.624Z,86.68
2022-10-22T01:20:49.905Z,87.32
2022-10-22T01:23:50.779Z,86.93
2022-10-22T01:26:32.507Z,86.56
2022-10-22T01:29:07.616Z,86.55
2022-10-22T01:31:45.646Z,86.71
2022-10-22T01:34:15.267Z,86.95
2022-10-22T01:36:42.954Z,86.93
2022-10-22T01:39:11.048Z,86.88
2022-10-22T01:41:39.400Z,87.02
2022-10-22T01:44:06.516Z,87.04
2022-10-22T01:46:33.946Z,87.13
2022-10-22T01:49:28.054Z,86.81
2022-10-22T01:52:34.225Z,87.28
2022-10-22T01:55:28.340Z,87.02
2022-10-22T01:58:03.630Z,87.01
2022-10-22T02:00:30.856Z,87.14
2022-10-22T02:03:04.930Z,86.95
2022-10-22T02:05:41.297Z,86.95
2022-10-22T02:08:10.501Z,87.28
2022-10-22T02:10:39.653Z,87.05
2022-10-22T02:13:13.453Z,87.37
2022-10-22T02:15:42.052Z,87.34
2022-10-22T02:18:09.808Z,87.24
2022-10-22T02:20:38.921Z,87.33
2022-10-22T02:23:06.206Z,87.18
2022-10-22T02:25:39.758Z,87.24
2022-10-22T02:28:16.982Z,87.65
2022-10-22T02:30:48.194Z,87.29
2022-10-22T02:33:22.107Z,87.45
2022-10-22T02:35:49.937Z,87.52
2022-10-22T02:38:17.496Z,87.48
2022-10-22T02:40:44.924Z,87.53
2022-10-22T02:43:12.034Z,87.34
2022-10-22T02:45:39.159Z,87.65
2022-10-22T02:48:06.484Z,87.88
2022-10-22T02:50:33.660Z,87.81
2022-10-22T02:53:00.781Z,88.03
2022-10-22T02:55:28.037Z,87.63
2022-10-22T02:57:55.128Z,88.06
2022-10-22T03:00:22.661Z,87.62
2022-10-22T03:02:49.889Z,87.53
2022-10-22T03:05:17.081Z,87.79
2022-10-22T03:07:44.241Z,87.72
2022-10-22T03:10:11.398Z,87.73
2022-10-22T03:12:38.557Z,88.16
2022-10-22T03:15:06.099Z,88.23
2022-10-22T03:17:33.195Z,88.18
2022-10-22T03:20:00.295Z,87.90
2022-10-22T03:22:29.291Z,87.63
2022-10-22T03:24:59.387Z,87.61
2022-10-22T03:27:28.400Z,87.69
2022-10-22T03:29:57.021Z,87.68
2022-10-22T03:32:24.253Z,87.57
2022-10-22T03:34:51.456Z,87.20
2022-10-22T03:37:18.729Z,87.50
2022-10-22T03:39:46.044Z,87.46
2022-10-22T03:42:13.539Z,87.22
2022-10-22T03:44:41.149Z,86.97
2022-10-22T03:47:08.337Z,86.89
2022-10-22T03:49:35.922Z,86.94
2022-10-22T03:52:11.859Z,86.97
2022-10-22T03:54:40.049Z,87.19
2022-10-22T03:57:07.242Z,86.91
2022-10-22T03:59:42.720Z,86.80
2022-10-22T04:02:11.024Z,86.45
2022-10-22T04:04:39.594Z,86.78
2022-10-22T04:07:07.307Z,86.64
2022-10-22T04:09:35.086Z,87.07
2022-10-22T04:12:02.314Z,87.49
2022-10-22T04:14:29.422Z,87.04
2022-10-22T04:16:56.568Z,86.62
2022-10-22T04:19:23.752Z,86.71
2022-10-22T04:21:50.875Z,86.99
2022-10-22T04:24:18.147Z,86.69
2022-10-22T04:26:45.301Z,86.60
2022-10-22T04:29:15.959Z,87.00
2022-10-22T04:31:43.684Z,87.26
2022-10-22T04:34:10.841Z,86.36
2022-10-22T04:36:38.074Z,86.70
2022-10-22T04:39:06.099Z,86.90
2022-10-22T04:41:36.137Z,86.95
2022-10-22T04:44:03.916Z,87.40
2022-10-22T04:46:33.511Z,87.07
2022-10-22T04:49:01.071Z,87.02
2022-10-22T04:51:28.296Z,86.94
2022-10-22T04:53:55.418Z,87.06
2022-10-22T04:56:25.574Z,87.25
2022-10-22T04:59:15.183Z,87.19
2022-10-22T05:01:44.097Z,87.07
2022-10-22T05:04:13.170Z,87.28
2022-10-22T05:06:40.461Z,87.44
2022-10-22T05:09:13.975Z,87.54
2022-10-22T05:11:45.325Z,87.47
2022-10-22T05:14:12.582Z,87.55
2022-10-22T05:16:40.032Z,87.36
2022-10-22T05:19:08.068Z,87.41
2022-10-22T05:21:37.615Z,87.36
2022-10-22T05:24:05.100Z,87.14
2022-10-22T05:26:32.244Z,86.77
2022-10-22T05:28:59.424Z,86.71
2022-10-22T05:31:28.773Z,86.65
2022-10-22T05:33:55.937Z,86.60
2022-10-22T05:36:23.385Z,86.38
2022-10-22T05:38:50.638Z,86.32
2022-10-22T05:41:25.339Z,86.26
2022-10-22T05:43:55.775Z,86.29
2022-10-22T05:46:24.538Z,86.22
2022-10-22T05:48:56.698Z,86.07
2022-10-22T05:51:24.783Z,86.65
2022-10-22T05:53:55.818Z,86.37
2022-10-22T05:56:23.344Z,86.32
2022-10-22T05:58:50.741Z,86.26
2022-10-22T06:01:29.055Z,86.33
2022-10-22T06:04:00.725Z,86.29
2022-10-22T06:06:34.060Z,86.15
2022-10-22T06:09:16.478Z,86.24
2022-10-22T06:11:43.661Z,86.02
2022-10-22T06:14:11.066Z,85.98
2022-10-22T06:16:38.537Z,85.98
2022-10-22T06:19:05.702Z,86.15
2022-10-22T06:21:33.130Z,86.09
2022-10-22T06:24:01.028Z,86.54
2022-10-22T06:26:28.379Z,86.79
2022-10-22T06:28:56.177Z,87.22
2022-10-22T06:31:24.108Z,87.68
2022-10-22T06:33:51.240Z,87.68
2022-10-22T06:36:20.559Z,87.72
2022-10-22T06:38:47.877Z,88.28
2022-10-22T06:41:16.377Z,88.40
2022-10-22T06:43:47.709Z,88.72
2022-10-22T06:46:19.837Z,89.24
2022-10-22T06:48:55.302Z,89.82
2022-10-22T06:51:22.587Z,89.87
2022-10-22T06:53:49.939Z,90.11
2022-10-22T06:56:19.140Z,89.85
2022-10-22T06:58:53.593Z,90.10
2022-10-22T07:01:23.372Z,90.56
2022-10-22T07:03:51.864Z,90.72
2022-10-22T07:06:20.164Z,90.78
2022-10-22T07:08:47.476Z,90.94
2022-10-22T07:11:19.655Z,91.26
2022-10-22T07:13:47.035Z,91.57
2022-10-22T07:16:14.722Z,91.45
2022-10-22T07:18:42.249Z,91.50
2022-10-22T07:21:11.307Z,91.42
2022-10-22T07:23:38.595Z,90.91
2022-10-22T07:26:07.492Z,91.29
2022-10-22T07:28:39.829Z,91.89
2022-10-22T07:31:08.879Z,91.92
2022-10-22T07:33:36.241Z,91.97
2022-10-22T07:36:06.707Z,92.10
2022-10-22T07:38:35.027Z,92.53
2022-10-22T07:41:02.787Z,92.22
2022-10-22T07:43:29.823Z,92.29
2022-10-22T07:45:56.874Z,92.40
2022-10-22T07:48:24.089Z,92.09
2022-10-22T07:50:51.497Z,92.46
2022-10-22T07:53:18.898Z,92.52
2022-10-22T07:55:49.008Z,92.79
2022-10-22T07:58:17.382Z,92.78
2022-10-22T08:00:45.081Z,92.60
2022-10-22T08:03:13.179Z,92.83
2022-10-22T08:05:40.967Z,92.80
2022-10-22T08:08:08.058Z,93.07
2022-10-22T08:10:35.345Z,93.09
2022-10-22T08:13:02.649Z,93.32
2022-10-22T08:15:30.223Z,93.25
2022-10-22T08:17:57.304Z,93.59
2022-10-22T08:20:24.693Z,93.93
2022-10-22T08:22:51.976Z,94.21
2022-10-22T08:25:19.143Z,93.84
2022-10-22T08:27:46.248Z,94.23
2022-10-22T08:30:13.856Z,94.38
2022-10-22T08:32:41.788Z,93.79
2022-10-22T08:35:09.844Z,94.28
2022-10-22T08:37:37.519Z,94.28
2022-10-22T08:40:08.855Z,94.07
2022-10-22T08:42:45.148Z,94.14
2022-10-22T08:45:15.809Z,94.57
2022-10-22T08:48:01.398Z,94.51
2022-10-22T08:50:46.976Z,94.48
2022-10-22T08:53:56.734Z,94.57
2022-10-22T08:56:24.408Z,93.65
2022-10-22T08:59:19.092Z,93.42
2022-10-22T09:01:50.099Z,93.85
2022-10-22T09:04:44.419Z,94.42
2022-10-22T09:07:11.477Z,94.34
2022-10-22T09:09:42.754Z,94.38
2022-10-22T09:12:19.343Z,94.25
2022-10-22T09:14:47.514Z,93.81
2022-10-22T09:17:44.516Z,93.21
2022-10-22T09:20:16.945Z,92.32
2022-10-22T09:23:06.295Z,91.58
2022-10-22T09:25:36.015Z,92.15
2022-10-22T09:28:03.790Z,91.65
2022-10-22T09:30:35.155Z,90.96
2022-10-22T09:33:07.098Z,91.09
2022-10-22T09:35:44.082Z,90.38
2022-10-22T09:38:13.703Z,90.86
2022-10-22T09:40:52.181Z,90.75
2022-10-22T09:43:19.825Z,89.83
2022-10-22T09:45:48.193Z,90.03
2022-10-22T09:48:15.139Z,88.86
2022-10-22T09:50:48.172Z,88.01
2022-10-22T09:53:23.672Z,89.42
2022-10-22T09:58:28.785Z,89.10
2022-10-22T10:00:57.887Z,88.65
2022-10-22T10:03:28.643Z,88.13
2022-10-22T10:06:02.988Z,88.07
2022-10-22T10:08:33.490Z,88.65
2022-10-22T10:11:25.527Z,89.16
2022-10-22T10:14:07.466Z,87.61
2022-10-22T10:16:55.981Z,87.67
2022-10-22T10:19:26.924Z,88.23
2022-10-22T10:22:18.795Z,87.38
2022-10-22T10:24:51.075Z,87.22
2022-10-22T10:27:54.816Z,86.92
2022-10-22T10:30:25.927Z,87.82
2022-10-22T10:33:16.299Z,86.49
2022-10-22T10:35:49.000Z,86.68
2022-10-22T10:38:34.942Z,86.53
2022-10-22T10:41:23.815Z,86.00
2022-10-22T10:43:58.421Z,85.79
2022-10-22T10:46:41.216Z,84.99
2022-10-22T10:49:17.470Z,85.43
2022-10-22T10:52:17.398Z,83.35
2022-10-22T10:55:03.930Z,84.95
2022-10-22T10:57:52.786Z,85.19
2022-10-22T11:00:21.212Z,84.80
2022-10-22T11:03:10.315Z,85.17
2022-10-22T11:06:00.353Z,83.90
2022-10-22T11:08:32.696Z,83.82
2022-10-22T11:11:11.540Z,81.54
2022-10-22T11:13:42.840Z,81.38
2022-10-22T11:16:31.163Z,81.53
2022-10-22T11:19:46.054Z,82.03
2022-10-22T11:22:27.143Z,81.41
2022-10-22T11:25:05.343Z,79.56
2022-10-22T11:27:42.954Z,78.88
2022-10-22T11:30:19.698Z,78.00
2022-10-22T11:32:52.998Z,75.40
2022-10-22T11:35:25.819Z,76.27
2022-10-22T11:37:55.454Z,76.61
2022-10-22T11:40:33.029Z,76.93
2022-10-22T11:43:08.048Z,76.56
2022-10-22T11:45:37.935Z,76.34
2022-10-22T11:48:11.230Z,77.57
2022-10-22T11:50:41.019Z,78.51
2022-10-22T11:53:13.807Z,77.07
2022-10-22T11:55:48.594Z,77.45
2022-10-22T11:58:32.320Z,75.94
2022-10-22T12:01:02.131Z,76.75
2022-10-22T12:03:32.200Z,75.67
2022-10-22T12:06:05.042Z,73.24
2022-10-22T12:08:33.159Z,74.29
2022-10-22T12:11:06.493Z,72.88
2022-10-22T12:14:09.786Z,72.58
2022-10-22T12:16:56.556Z,71.82
2022-10-22T12:19:37.550Z,74.27
2022-10-22T12:22:07.633Z,73.63
2022-10-22T12:24:38.527Z,73.77
2022-10-22T12:27:25.857Z,72.29
2022-10-22T12:29:58.125Z,72.30
2022-10-22T12:32:36.332Z,71.82
2022-10-22T12:35:08.617Z,71.80
2022-10-22T12:37:37.168Z,72.47
2022-10-22T12:40:18.756Z,70.96
2022-10-22T12:43:14.418Z,71.16
2022-10-22T12:45:44.023Z,70.90
2022-10-22T12:48:17.663Z,69.12
2022-10-22T12:50:53.454Z,71.28
2022-10-22T12:53:32.870Z,69.09
2022-10-22T12:56:03.020Z,71.10
2022-10-22T12:58:36.655Z,71.38
2022-10-22T13:01:04.364Z,70.33
2022-10-22T13:03:42.376Z,71.65
2022-10-22T13:06:14.048Z,70.86
2022-10-22T13:08:41.443Z,70.60
2022-10-22T13:11:10.973Z,69.85
2022-10-22T13:13:38.023Z,70.29
2022-10-22T13:16:25.671Z,67.55
2022-10-22T13:18:54.107Z,67.46
2022-10-22T13:21:33.487Z,65.34
2022-10-22T13:24:03.058Z,66.19
2022-10-22T13:26:37.427Z,66.05
2022-10-22T13:29:10.705Z,66.28
2022-10-22T13:31:46.529Z,67.76
2022-10-22T13:34:17.416Z,67.22
2022-10-22T13:36:44.619Z,67.47
2022-10-22T13:39:20.888Z,67.38
2022-10-22T13:41:50.503Z,67.02
2022-10-22T13:44:18.530Z,65.55
2022-10-22T13:46:47.226Z,66.33
2022-10-22T13:49:16.876Z,66.40
2022-10-22T13:51:44.216Z,66.45
2022-10-22T13:54:19.925Z,67.09
2022-10-22T13:56:47.001Z,67.33
2022-10-22T13:59:15.409Z,67.39
2022-10-22T14:01:45.043Z,67.69
2022-10-22T14:04:13.695Z,68.24
2022-10-22T14:06:40.777Z,67.63
2022-10-22T14:09:11.930Z,67.70
2022-10-22T14:11:39.106Z,68.19
2022-10-22T14:14:08.987Z,67.78
2022-10-22T14:16:37.756Z,67.38
2022-10-22T14:19:07.570Z,67.62
2022-10-22T14:21:36.953Z,67.26
2022-10-22T14:24:06.118Z,68.01
2022-10-22T14:26:35.540Z,68.15
2022-10-22T14:29:11.698Z,67.71
2022-10-22T14:34:14.287Z,67.37
2022-10-22T14:36:43.684Z,67.80
2022-10-22T14:39:11.366Z,67.54
2022-10-22T14:41:38.474Z,68.75
2022-10-22T14:44:05.772Z,68.65
2022-10-22T14:46:32.933Z,69.26
2022-10-22T14:48:59.997Z,69.06
2022-10-22T14:51:27.026Z,69.64
2022-10-22T14:53:54.054Z,68.84
2022-10-22T14:56:21.431Z,68.90
2022-10-22T14:58:49.046Z,69.76
2022-10-22T15:01:16.440Z,69.88
2022-10-22T15:03:43.640Z,70.23
2022-10-22T15:06:10.777Z,69.67
2022-10-22T15:08:38.082Z,70.53
2022-10-22T15:11:07.740Z,70.79
2022-10-22T15:13:35.450Z,70.69
2022-10-22T15:16:06.348Z,71.10
2022-10-22T15:18:33.438Z,71.36
2022-10-22T15:21:02.896Z,71.74
2022-10-22T15:23:30.398Z,71.88
2022-10-22T15:25:57.593Z,72.20
2022-10-22T15:28:25.056Z,72.31
2022-10-22T15:31:00.270Z,72.50
2022-10-22T15:33:28.860Z,72.62
2022-10-22T15:35:56.472Z,72.59
2022-10-22T15:38:32.615Z,72.79
2022-10-22T15:41:05.526Z,73.34
2022-10-22T15:43:33.961Z,73.17
2022-10-22T15:46:11.694Z,73.25
2022-10-22T15:48:38.836Z,73.15
2022-10-22T15:51:13.663Z,73.65
2022-10-22T15:53:40.806Z,73.55
2022-10-22T15:56:08.811Z,73.67
2022-10-22T15:58:35.882Z,73.70
2022-10-22T16:01:11.891Z,74.02
2022-10-22T16:03:39.268Z,74.25
2022-10-22T16:06:07.041Z,74.20
2022-10-22T16:08:34.223Z,74.26
2022-10-22T16:11:01.416Z,74.45
2022-10-22T16:13:28.665Z,74.57
2022-10-22T16:15:55.731Z,74.77
2022-10-22T16:18:23.636Z,74.61
2022-10-22T16:20:50.753Z,74.65
2022-10-22T16:23:18.992Z,74.84
2022-10-22T16:25:46.742Z,74.92
2022-10-22T16:28:14.334Z,74.92
2022-10-22T16:30:41.752Z,75.11
2022-10-22T16:33:10.396Z,74.94
2022-10-22T16:35:41.736Z,74.87
2022-10-22T16:38:10.587Z,75.00
2022-10-22T16:40:38.014Z,75.18
2022-10-22T16:43:05.714Z,75.32
2022-10-22T16:45:32.840Z,75.17
2022-10-22T16:47:59.939Z,75.47
2022-10-22T16:50:27.043Z,75.95
2022-10-22T16:52:54.212Z,76.03
2022-10-22T16:55:21.292Z,75.91
2022-10-22T16:57:52.265Z,76.36
2022-10-22T17:00:20.249Z,76.58
2022-10-22T17:02:53.788Z,76.81
2022-10-22T17:05:21.470Z,77.04
2022-10-22T17:07:48.667Z,77.02
2022-10-22T17:10:17.137Z,77.09
2022-10-22T17:12:44.530Z,77.29
2022-10-22T17:15:12.141Z,77.29
2022-10-22T17:17:39.462Z,77.40
2022-10-22T17:20:07.009Z,77.43
2022-10-22T17:22:34.125Z,77.48
2022-10-22T17:25:06.916Z,77.74
2022-10-22T17:27:33.995Z,77.45
2022-10-22T17:30:01.048Z,77.81
2022-10-22T17:32:29.895Z,77.80
2022-10-22T17:34:57.007Z,77.77
2022-10-22T17:37:24.086Z,77.75
2022-10-22T17:39:51.307Z,78.38
2022-10-22T17:42:18.420Z,78.38
2022-10-22T17:44:45.491Z,78.83
2022-10-22T17:47:12.578Z,78.75
2022-10-22T17:49:39.785Z,78.60
2022-10-22T17:52:07.051Z,78.82
2022-10-22T17:54:34.218Z,78.71
2022-10-22T17:57:01.276Z,78.38
2022-10-22T17:59:28.525Z,78.60
2022-10-22T18:01:59.414Z,78.81
2022-10-22T18:04:27.591Z,78.87
2022-10-22T18:06:54.920Z,78.96
2022-10-22T18:09:22.132Z,79.10
2022-10-22T18:11:51.716Z,78.96
2022-10-22T18:14:20.099Z,79.01
2022-10-22T18:16:47.650Z,78.88
2022-10-22T18:19:17.065Z,78.90
2022-10-22T18:21:44.282Z,78.61
2022-10-22T18:24:13.262Z,78.76
2022-10-22T18:26:40.295Z,78.79
2022-10-22T18:29:08.035Z,78.47
2022-10-22T18:31:35.697Z,78.45
2022-10-22T18:34:02.885Z,78.41
2022-10-22T18:36:29.992Z,78.17
2022-10-22T18:38:58.987Z,78.08
2022-10-22T18:41:27.621Z,78.55
2022-10-22T18:44:02.664Z,78.62
2022-10-22T18:46:30.832Z,78.37
2022-10-22T18:48:58.810Z,78.14
2022-10-22T18:51:30.070Z,78.36
2022-10-22T18:54:11.359Z,78.32
2022-10-22T18:56:44.320Z,77.74
2022-10-22T18:59:22.866Z,78.15
2022-10-22T19:01:51.490Z,78.05
2022-10-22T19:04:18.663Z,78.18
2022-10-22T19:06:46.121Z,78.05
2022-10-22T19:09:16.978Z,78.03
2022-10-22T19:11:44.928Z,77.90
2022-10-22T19:14:13.078Z,77.82
2022-10-22T19:16:40.246Z,77.96
2022-10-22T19:19:08.030Z,78.12
2022-10-22T19:21:35.500Z,77.98
2022-10-22T19:24:02.605Z,77.96
2022-10-22T19:26:30.361Z,77.83
2022-10-22T19:28:58.458Z,77.88
2022-10-22T19:31:26.829Z,77.65
2022-10-22T19:33:55.299Z,77.36
2022-10-22T19:36:27.923Z,77.62
2022-10-22T19:38:55.822Z,77.17
2022-10-22T19:41:25.116Z,77.50
2022-10-22T19:43:53.394Z,77.57
2022-10-22T19:46:21.868Z,77.87
2022-10-22T19:48:51.229Z,77.53
2022-10-22T19:51:20.616Z,77.48
2022-10-22T19:53:48.323Z,77.50
2022-10-22T19:56:18.444Z,77.15
2022-10-22T19:58:45.839Z,77.53
2022-10-22T20:01:15.532Z,77.28
2022-10-22T20:03:42.682Z,77.19
2022-10-22T20:06:11.532Z,77.09
2022-10-22T20:08:39.258Z,77.21
2022-10-22T20:11:12.330Z,77.19
2022-10-22T20:16:11.866Z,77.08
2022-10-22T20:18:38.998Z,77.20
2022-10-22T20:21:07.659Z,77.63
2022-10-22T20:23:35.218Z,77.67
2022-10-22T20:26:02.311Z,77.48
2022-10-22T20:28:29.393Z,77.72
2022-10-22T20:30:56.676Z,77.59
2022-10-22T20:33:23.833Z,77.81
2022-10-22T20:36:00.978Z,78.18
2022-10-22T20:38:28.204Z,78.68
2022-10-22T20:41:06.784Z,78.99
2022-10-22T20:43:34.069Z,79.03
2022-10-22T20:46:01.227Z,78.77
2022-10-22T20:48:31.234Z,78.76
2022-10-22T20:50:59.191Z,79.16
2022-10-22T20:53:27.309Z,79.62
2022-10-22T20:55:57.755Z,79.29
2022-10-22T20:58:26.953Z,79.88
2022-10-22T21:00:54.977Z,79.67
2022-10-22T21:03:22.688Z,79.70
2022-10-22T21:05:50.203Z,80.06
2022-10-22T21:08:17.818Z,79.79
2022-10-22T21:10:46.491Z,79.98
2022-10-22T21:13:14.024Z,80.43
2022-10-22T21:15:41.495Z,80.05
2022-10-22T21:18:09.135Z,80.66
2022-10-22T21:20:36.743Z,80.88
2022-10-22T21:23:04.034Z,81.09
2022-10-22T21:25:31.555Z,80.83
2022-10-22T21:27:58.637Z,81.27
2022-10-22T21:30:25.753Z,81.10
2022-10-22T21:32:56.015Z,81.45
2022-10-22T21:35:23.470Z,81.88
2022-10-22T21:37:50.738Z,81.88
2022-10-22T21:40:17.906Z,82.24
2022-10-22T21:42:44.978Z,82.26
2022-10-22T21:45:13.607Z,82.40
2022-10-22T21:47:42.096Z,82.51
2022-10-22T21:50:09.516Z,82.32
2022-10-22T21:52:36.598Z,82.83
2022-10-22T21:55:03.902Z,82.39
2022-10-22T21:57:31.076Z,82.15
2022-10-22T21:59:58.170Z,82.80
2022-10-22T22:02:27.232Z,82.69
2022-10-22T22:04:54.886Z,82.59
2022-10-22T22:07:22.133Z,82.71
2022-10-22T22:09:52.303Z,82.55
2022-10-22T22:12:20.502Z,82.47
2022-10-22T22:14:47.665Z,82.18
2022-10-22T22:17:16.440Z,82.01
2022-10-22T22:19:43.562Z,82.27
2022-10-22T22:22:10.797Z,82.67
2022-10-22T22:24:39.681Z,82.75
2022-10-22T22:27:06.934Z,82.73
2022-10-22T22:29:34.443Z,82.45
2022-10-22T22:32:01.544Z,82.56
2022-10-22T22:34:28.656Z,82.95
2022-10-22T22:36:55.776Z,82.60
2022-10-22T22:39:24.001Z,83.00
2022-10-22T22:41:51.253Z,83.01
2022-10-22T22:44:18.576Z,83.44
2022-10-22T22:46:45.638Z,83.26
2022-10-22T22:49:13.577Z,83.18
2022-10-22T22:51:40.743Z,83.19
2022-10-22T22:54:08.140Z,83.48
2022-10-22T22:56:35.496Z,84.04
2022-10-22T22:59:03.763Z,84.54
2022-10-22T23:01:38.967Z,84.66
2022-10-22T23:04:19.018Z,84.62
2022-10-22T23:06:46.394Z,85.28
2022-10-22T23:09:15.272Z,84.98
2022-10-22T23:11:43.783Z,84.73
2022-10-22T23:14:14.078Z,85.07
2022-10-22T23:16:45.352Z,85.04
2022-10-22T23:19:14.539Z,84.99
2022-10-22T23:21:45.540Z,85.09
2022-10-22T23:24:15.341Z,84.63
2022-10-22T23:26:45.100Z,84.50
2022-10-22T23:29:21.161Z,84.62
2022-10-22T23:31:48.724Z,84.33
2022-10-22T23:34:21.672Z,84.54
2022-10-22T23:36:49.829Z,84.13
2022-10-22T23:39:19.633Z,84.44
2022-10-22T23:41:46.727Z,84.46
2022-10-22T23:44:13.911Z,84.66
2022-10-22T23:46:41.267Z,84.78
2022-10-22T23:49:09.728Z,84.99
2022-10-22T23:51:37.626Z,84.90
2022-10-22T23:54:11.092Z,84.37
2022-10-22T23:56:38.437Z,84.66
2022-10-22T23:59:05.780Z,84.65
